sensor_id;sensor_type;location;lat;lon;timestamp;temperature;humidity
51589;DHT22;37671;53.258;6.460;2022-11-04T00:01:38;11.10;99.90
51589;DHT22;37671;53.258;6.460;2022-11-04T00:04:04;11.00;99.90
51589;DHT22;37671;53.258;6.460;2022-11-04T00:06:29;11.00;99.90
51589;DHT22;37671;53.258;6.460;2022-11-04T00:08:57;11.10;99.90
51589;DHT22;37671;53.258;6.460;2022-11-04T00:11:23;11.00;99.90
51589;DHT22;37671;53.258;6.460;2022-11-04T00:14:13;11.00;99.90
51589;DHT22;37671;53.258;6.460;2022-11-04T00:16:39;11.60;99.90
51589;DHT22;37671;53.258;6.460;2022-11-04T00:19:23;11.00;99.90
51589;DHT22;37671;53.258;6.460;2022-11-04T00:21:49;11.10;99.90
51589;DHT22;37671;53.258;6.460;2022-11-04T00:24:33;11.00;99.90
51589;DHT22;37671;53.258;6.460;2022-11-04T00:27:19;11.10;99.90
51589;DHT22;37671;53.258;6.460;2022-11-04T00:30:06;11.00;99.90
51589;DHT22;37671;53.258;6.460;2022-11-04T00:32:33;10.80;99.90
51589;DHT22;37671;53.258;6.460;2022-11-04T00:35:17;10.80;99.90
51589;DHT22;37671;53.258;6.460;2022-11-04T00:37:43;10.70;99.90
51589;DHT22;37671;53.258;6.460;2022-11-04T00:40:11;11.50;99.90
51589;DHT22;37671;53.258;6.460;2022-11-04T00:42:38;11.10;99.90
51589;DHT22;37671;53.258;6.460;2022-11-04T00:45:04;10.70;99.90
51589;DHT22;37671;53.258;6.460;2022-11-04T00:47:30;10.70;99.90
51589;DHT22;37671;53.258;6.460;2022-11-04T00:49:57;11.50;99.90
51589;DHT22;37671;53.258;6.460;2022-11-04T00:52:22;10.70;99.90
51589;DHT22;37671;53.258;6.460;2022-11-04T00:54:48;10.60;99.90
51589;DHT22;37671;53.258;6.460;2022-11-04T00:57:14;10.60;99.90
51589;DHT22;37671;53.258;6.460;2022-11-04T00:59:40;10.50;99.90
51589;DHT22;37671;53.258;6.460;2022-11-04T01:02:07;10.50;99.90
51589;DHT22;37671;53.258;6.460;2022-11-04T01:04:33;10.80;99.90
51589;DHT22;37671;53.258;6.460;2022-11-04T01:06:59;10.50;99.90
51589;DHT22;37671;53.258;6.460;2022-11-04T01:09:25;10.40;99.90
51589;DHT22;37671;53.258;6.460;2022-11-04T01:11:51;10.90;99.90
51589;DHT22;37671;53.258;6.460;2022-11-04T01:14:17;10.30;99.90
51589;DHT22;37671;53.258;6.460;2022-11-04T01:16:43;10.40;99.90
51589;DHT22;37671;53.258;6.460;2022-11-04T01:19:09;10.80;99.90
51589;DHT22;37671;53.258;6.460;2022-11-04T01:21:35;10.30;99.90
51589;DHT22;37671;53.258;6.460;2022-11-04T01:24:01;10.40;99.90
51589;DHT22;37671;53.258;6.460;2022-11-04T01:26:28;10.30;99.90
51589;DHT22;37671;53.258;6.460;2022-11-04T01:28:55;10.30;99.90
51589;DHT22;37671;53.258;6.460;2022-11-04T06:03:08;9.10;99.90
51589;DHT22;37671;53.258;6.460;2022-11-04T06:05:34;9.10;99.90
51589;DHT22;37671;53.258;6.460;2022-11-04T06:08:00;9.10;99.90
51589;DHT22;37671;53.258;6.460;2022-11-04T06:10:25;9.20;99.90
51589;DHT22;37671;53.258;6.460;2022-11-04T06:12:51;9.20;99.90
51589;DHT22;37671;53.258;6.460;2022-11-04T06:15:16;9.70;99.90
51589;DHT22;37671;53.258;6.460;2022-11-04T06:17:42;9.20;99.90
51589;DHT22;37671;53.258;6.460;2022-11-04T06:20:09;9.20;99.90
51589;DHT22;37671;53.258;6.460;2022-11-04T06:22:34;9.20;99.90
51589;DHT22;37671;53.258;6.460;2022-11-04T06:25:00;9.10;99.90
51589;DHT22;37671;53.258;6.460;2022-11-04T06:27:26;9.10;99.90
51589;DHT22;37671;53.258;6.460;2022-11-04T06:29:51;9.70;99.90
51589;DHT22;37671;53.258;6.460;2022-11-04T06:32:18;9.00;99.90
51589;DHT22;37671;53.258;6.460;2022-11-04T06:34:45;8.90;99.90
51589;DHT22;37671;53.258;6.460;2022-11-04T06:37:11;8.80;99.90
51589;DHT22;37671;53.258;6.460;2022-11-04T06:39:36;8.80;99.90
51589;DHT22;37671;53.258;6.460;2022-11-04T06:42:03;8.70;99.90
51589;DHT22;37671;53.258;6.460;2022-11-04T06:44:29;8.70;99.90
51589;DHT22;37671;53.258;6.460;2022-11-04T06:46:55;8.60;99.90
51589;DHT22;37671;53.258;6.460;2022-11-04T06:49:21;8.50;99.90
51589;DHT22;37671;53.258;6.460;2022-11-04T06:51:49;8.50;99.90
51589;DHT22;37671;53.258;6.460;2022-11-04T06:54:16;8.50;99.90
51589;DHT22;37671;53.258;6.460;2022-11-04T06:56:42;8.50;99.90
51589;DHT22;37671;53.258;6.460;2022-11-04T06:59:16;8.50;99.90
51589;DHT22;37671;53.258;6.460;2022-11-04T07:01:43;8.50;99.90
51589;DHT22;37671;53.258;6.460;2022-11-04T07:04:08;8.40;99.90
51589;DHT22;37671;53.258;6.460;2022-11-04T07:06:34;8.50;99.90
51589;DHT22;37671;53.258;6.460;2022-11-04T07:09:01;8.40;99.90
51589;DHT22;37671;53.258;6.460;2022-11-04T07:11:30;8.50;99.90
51589;DHT22;37671;53.258;6.460;2022-11-04T07:13:55;8.40;99.90
51589;DHT22;37671;53.258;6.460;2022-11-04T07:16:21;8.40;99.90
51589;DHT22;37671;53.258;6.460;2022-11-04T07:18:47;8.40;99.90
51589;DHT22;37671;53.258;6.460;2022-11-04T07:21:13;8.40;99.90
51589;DHT22;37671;53.258;6.460;2022-11-04T07:23:39;8.40;99.90
51589;DHT22;37671;53.258;6.460;2022-11-04T07:26:06;8.40;99.90
51589;DHT22;37671;53.258;6.460;2022-11-04T07:28:33;8.40;99.90
51589;DHT22;37671;53.258;6.460;2022-11-04T07:31:00;8.50;99.90
51589;DHT22;37671;53.258;6.460;2022-11-04T07:33:26;8.50;99.90
51589;DHT22;37671;53.258;6.460;2022-11-04T07:35:53;8.50;99.90
51589;DHT22;37671;53.258;6.460;2022-11-04T07:38:20;8.60;99.90
51589;DHT22;37671;53.258;6.460;2022-11-04T07:40:46;9.60;99.90
51589;DHT22;37671;53.258;6.460;2022-11-04T07:43:11;8.70;99.90
51589;DHT22;37671;53.258;6.460;2022-11-04T07:45:37;8.80;99.90
51589;DHT22;37671;53.258;6.460;2022-11-04T07:48:03;8.80;99.90
51589;DHT22;37671;53.258;6.460;2022-11-04T07:50:28;8.80;99.90
51589;DHT22;37671;53.258;6.460;2022-11-04T07:52:54;9.00;99.90
51589;DHT22;37671;53.258;6.460;2022-11-04T07:55:20;9.00;99.90
51589;DHT22;37671;53.258;6.460;2022-11-04T07:57:46;9.10;99.90
51589;DHT22;37671;53.258;6.460;2022-11-04T08:00:14;9.20;99.90
51589;DHT22;37671;53.258;6.460;2022-11-04T08:02:41;9.20;99.90
51589;DHT22;37671;53.258;6.460;2022-11-04T08:05:08;9.20;99.90
51589;DHT22;37671;53.258;6.460;2022-11-04T08:07:34;9.10;99.90
51589;DHT22;37671;53.258;6.460;2022-11-04T08:09:59;9.20;99.90
51589;DHT22;37671;53.258;6.460;2022-11-04T08:12:25;9.30;99.90
51589;DHT22;37671;53.258;6.460;2022-11-04T08:14:52;9.30;99.90
51589;DHT22;37671;53.258;6.460;2022-11-04T08:17:18;9.40;99.90
51589;DHT22;37671;53.258;6.460;2022-11-04T08:19:43;9.40;99.90
51589;DHT22;37671;53.258;6.460;2022-11-04T08:22:09;9.60;99.90
51589;DHT22;37671;53.258;6.460;2022-11-04T08:24:34;9.60;99.90
51589;DHT22;37671;53.258;6.460;2022-11-04T08:27:01;9.70;99.90
51589;DHT22;37671;53.258;6.460;2022-11-04T08:29:27;9.90;99.90
51589;DHT22;37671;53.258;6.460;2022-11-04T08:31:53;10.00;99.90
51589;DHT22;37671;53.258;6.460;2022-11-04T08:34:18;10.00;99.90
51589;DHT22;37671;53.258;6.460;2022-11-04T08:36:44;10.00;99.90
51589;DHT22;37671;53.258;6.460;2022-11-04T08:39:11;10.20;99.90
51589;DHT22;37671;53.258;6.460;2022-11-04T08:41:39;10.40;99.90
51589;DHT22;37671;53.258;6.460;2022-11-04T08:44:06;10.30;99.90
51589;DHT22;37671;53.258;6.460;2022-11-04T08:46:35;10.30;99.90
51589;DHT22;37671;53.258;6.460;2022-11-04T08:49:01;11.00;99.90
51589;DHT22;37671;53.258;6.460;2022-11-04T08:51:28;10.30;99.90
51589;DHT22;37671;53.258;6.460;2022-11-04T08:53:54;10.30;99.90
51589;DHT22;37671;53.258;6.460;2022-11-04T08:56:29;10.40;99.90
51589;DHT22;37671;53.258;6.460;2022-11-04T08:58:55;10.70;99.90
51589;DHT22;37671;53.258;6.460;2022-11-04T09:01:24;10.60;99.90
51589;DHT22;37671;53.258;6.460;2022-11-04T09:03:50;10.70;99.90
51589;DHT22;37671;53.258;6.460;2022-11-04T09:06:27;10.70;99.90
51589;DHT22;37671;53.258;6.460;2022-11-04T09:08:53;11.20;99.90
51589;DHT22;37671;53.258;6.460;2022-11-04T09:11:22;12.60;99.90
51589;DHT22;37671;53.258;6.460;2022-11-04T09:13:48;12.10;99.90
51589;DHT22;37671;53.258;6.460;2022-11-04T09:16:15;13.00;99.90
51589;DHT22;37671;53.258;6.460;2022-11-04T09:18:40;13.00;99.90
51589;DHT22;37671;53.258;6.460;2022-11-04T09:21:07;11.90;99.90
51589;DHT22;37671;53.258;6.460;2022-11-04T09:23:33;11.60;99.90
51589;DHT22;37671;53.258;6.460;2022-11-04T09:26:05;11.50;99.90
51589;DHT22;37671;53.258;6.460;2022-11-04T09:28:31;11.50;99.90
51589;DHT22;37671;53.258;6.460;2022-11-04T09:30:56;11.50;99.90
51589;DHT22;37671;53.258;6.460;2022-11-04T09:33:22;12.60;99.90
51589;DHT22;37671;53.258;6.460;2022-11-04T09:35:55;11.70;99.90
51589;DHT22;37671;53.258;6.460;2022-11-04T09:38:21;12.00;99.90
51589;DHT22;37671;53.258;6.460;2022-11-04T09:40:48;12.10;99.90
51589;DHT22;37671;53.258;6.460;2022-11-04T09:43:42;12.20;99.90
51589;DHT22;37671;53.258;6.460;2022-11-04T09:46:13;12.30;99.90
51589;DHT22;37671;53.258;6.460;2022-11-04T09:48:50;12.40;99.90
51589;DHT22;37671;53.258;6.460;2022-11-04T09:51:20;12.40;99.90
51589;DHT22;37671;53.258;6.460;2022-11-04T09:53:52;12.40;99.90
51589;DHT22;37671;53.258;6.460;2022-11-04T09:56:37;12.30;99.90
51589;DHT22;37671;53.258;6.460;2022-11-04T09:59:04;12.20;99.90
51589;DHT22;37671;53.258;6.460;2022-11-04T10:01:45;12.30;99.90
51589;DHT22;37671;53.258;6.460;2022-11-04T10:12:40;12.10;99.90
51589;DHT22;37671;53.258;6.460;2022-11-04T10:21:48;12.30;99.90
51589;DHT22;37671;53.258;6.460;2022-11-04T10:27:03;12.00;99.90
51589;DHT22;37671;53.258;6.460;2022-11-04T10:29:48;12.20;99.90
51589;DHT22;37671;53.258;6.460;2022-11-04T10:32:27;12.30;99.90
51589;DHT22;37671;53.258;6.460;2022-11-04T10:35:03;12.50;99.90
51589;DHT22;37671;53.258;6.460;2022-11-04T10:37:30;12.60;99.90
51589;DHT22;37671;53.258;6.460;2022-11-04T10:40:43;12.70;99.90
51589;DHT22;37671;53.258;6.460;2022-11-04T10:42:54;12.80;99.90
51589;DHT22;37671;53.258;6.460;2022-11-04T10:45:27;12.50;99.90
51589;DHT22;37671;53.258;6.460;2022-11-04T10:47:59;12.40;99.90
51589;DHT22;37671;53.258;6.460;2022-11-04T10:50:35;12.20;99.90
51589;DHT22;37671;53.258;6.460;2022-11-04T10:53:22;12.30;99.90
51589;DHT22;37671;53.258;6.460;2022-11-04T10:56:09;12.30;99.90
51589;DHT22;37671;53.258;6.460;2022-11-04T10:58:44;12.30;99.90
51589;DHT22;37671;53.258;6.460;2022-11-04T11:01:32;12.40;99.90
51589;DHT22;37671;53.258;6.460;2022-11-04T11:03:58;12.80;99.90
51589;DHT22;37671;53.258;6.460;2022-11-04T11:06:31;12.50;99.90
51589;DHT22;37671;53.258;6.460;2022-11-04T11:11:48;12.50;99.90
51589;DHT22;37671;53.258;6.460;2022-11-04T11:16:52;12.30;99.90
51589;DHT22;37671;53.258;6.460;2022-11-04T11:19:21;12.40;99.90
51589;DHT22;37671;53.258;6.460;2022-11-04T11:21:50;12.30;99.90
51589;DHT22;37671;53.258;6.460;2022-11-04T11:24:25;12.30;99.90
51589;DHT22;37671;53.258;6.460;2022-11-04T11:27:10;12.20;99.90
51589;DHT22;37671;53.258;6.460;2022-11-04T11:29:41;12.10;99.90
51589;DHT22;37671;53.258;6.460;2022-11-04T11:32:32;11.80;99.90
51589;DHT22;37671;53.258;6.460;2022-11-04T11:34:58;11.60;99.90
51589;DHT22;37671;53.258;6.460;2022-11-04T11:37:27;11.40;99.90
51589;DHT22;37671;53.258;6.460;2022-11-04T11:39:56;11.50;99.90
51589;DHT22;37671;53.258;6.460;2022-11-04T11:42:22;11.40;99.90
51589;DHT22;37671;53.258;6.460;2022-11-04T11:44:56;11.20;99.90
51589;DHT22;37671;53.258;6.460;2022-11-04T11:50:16;11.00;99.90
51589;DHT22;37671;53.258;6.460;2022-11-04T11:52:44;11.00;99.90
51589;DHT22;37671;53.258;6.460;2022-11-04T12:00:16;10.80;99.90
51589;DHT22;37671;53.258;6.460;2022-11-04T12:05:48;10.70;99.90
51589;DHT22;37671;53.258;6.460;2022-11-04T12:11:30;10.70;99.90
51589;DHT22;37671;53.258;6.460;2022-11-04T12:14:02;10.70;99.90
51589;DHT22;37671;53.258;6.460;2022-11-04T12:16:42;10.70;99.90
51589;DHT22;37671;53.258;6.460;2022-11-04T12:19:24;10.90;99.90
51589;DHT22;37671;53.258;6.460;2022-11-04T12:22:06;11.00;99.90
51589;DHT22;37671;53.258;6.460;2022-11-04T12:27:55;11.20;99.90
51589;DHT22;37671;53.258;6.460;2022-11-04T12:30:24;11.30;99.90
51589;DHT22;37671;53.258;6.460;2022-11-04T12:33:04;11.30;99.90
51589;DHT22;37671;53.258;6.460;2022-11-04T12:46:35;11.70;99.90
51589;DHT22;37671;53.258;6.460;2022-11-04T12:50:08;11.90;99.90
51589;DHT22;37671;53.258;6.460;2022-11-04T12:57:33;12.00;99.90
51589;DHT22;37671;53.258;6.460;2022-11-04T13:00:06;12.20;99.90
51589;DHT22;37671;53.258;6.460;2022-11-04T13:08:21;12.20;99.90
51589;DHT22;37671;53.258;6.460;2022-11-04T13:13:34;12.20;99.90
51589;DHT22;37671;53.258;6.460;2022-11-04T13:16:09;12.30;99.90
51589;DHT22;37671;53.258;6.460;2022-11-04T13:18:38;12.20;99.90
51589;DHT22;37671;53.258;6.460;2022-11-04T13:21:11;12.20;99.90
51589;DHT22;37671;53.258;6.460;2022-11-04T13:23:51;12.60;99.90
51589;DHT22;37671;53.258;6.460;2022-11-04T13:26:18;12.10;99.90
51589;DHT22;37671;53.258;6.460;2022-11-04T13:28:55;12.00;99.90
51589;DHT22;37671;53.258;6.460;2022-11-04T13:37:27;12.30;99.90
51589;DHT22;37671;53.258;6.460;2022-11-04T13:39:58;12.40;99.90
51589;DHT22;37671;53.258;6.460;2022-11-04T13:42:51;13.30;99.90
51589;DHT22;37671;53.258;6.460;2022-11-04T13:45:48;12.30;99.90
51589;DHT22;37671;53.258;6.460;2022-11-04T13:48:22;12.40;99.90
51589;DHT22;37671;53.258;6.460;2022-11-04T13:53:47;12.40;99.90
51589;DHT22;37671;53.258;6.460;2022-11-04T13:56:33;12.30;99.90
51589;DHT22;37671;53.258;6.460;2022-11-04T13:59:25;12.10;99.90
51589;DHT22;37671;53.258;6.460;2022-11-04T14:04:37;12.00;99.90
51589;DHT22;37671;53.258;6.460;2022-11-04T14:07:05;11.60;99.90
51589;DHT22;37671;53.258;6.460;2022-11-04T14:15:02;11.60;99.90
51589;DHT22;37671;53.258;6.460;2022-11-04T14:20:20;11.60;99.90
51589;DHT22;37671;53.258;6.460;2022-11-04T14:22:55;11.70;99.90
51589;DHT22;37671;53.258;6.460;2022-11-04T14:27:59;11.70;99.90
51589;DHT22;37671;53.258;6.460;2022-11-04T14:30:45;11.70;99.90
51589;DHT22;37671;53.258;6.460;2022-11-04T14:35:52;11.70;99.90
51589;DHT22;37671;53.258;6.460;2022-11-04T14:38:25;11.70;99.90
51589;DHT22;37671;53.258;6.460;2022-11-04T14:43:58;11.60;99.90
51589;DHT22;37671;53.258;6.460;2022-11-04T14:46:28;11.60;99.90
51589;DHT22;37671;53.258;6.460;2022-11-04T14:48:57;11.50;99.90
51589;DHT22;37671;53.258;6.460;2022-11-04T14:51:28;11.40;99.90
51589;DHT22;37671;53.258;6.460;2022-11-04T14:54:19;12.10;99.90
51589;DHT22;37671;53.258;6.460;2022-11-04T14:56:45;11.50;99.90
51589;DHT22;37671;53.258;6.460;2022-11-04T14:59:25;11.00;99.90
51589;DHT22;37671;53.258;6.460;2022-11-04T15:01:54;10.90;99.90
51589;DHT22;37671;53.258;6.460;2022-11-04T15:04:26;10.80;99.90
51589;DHT22;37671;53.258;6.460;2022-11-04T15:06:57;10.80;99.90
51589;DHT22;37671;53.258;6.460;2022-11-04T15:09:26;10.70;99.90
51589;DHT22;37671;53.258;6.460;2022-11-04T15:12:12;10.60;99.90
51589;DHT22;37671;53.258;6.460;2022-11-04T15:14:58;10.50;99.90
51589;DHT22;37671;53.258;6.460;2022-11-04T15:17:29;10.40;99.90
51589;DHT22;37671;53.258;6.460;2022-11-04T15:19:59;10.40;99.90
51589;DHT22;37671;53.258;6.460;2022-11-04T15:22:27;10.40;99.90
51589;DHT22;37671;53.258;6.460;2022-11-04T15:24:53;10.30;99.90
51589;DHT22;37671;53.258;6.460;2022-11-04T15:27:27;10.20;99.90
51589;DHT22;37671;53.258;6.460;2022-11-04T15:29:55;10.20;99.90
51589;DHT22;37671;53.258;6.460;2022-11-04T15:32:21;10.10;99.90
51589;DHT22;37671;53.258;6.460;2022-11-04T15:34:48;10.10;99.90
51589;DHT22;37671;53.258;6.460;2022-11-04T15:37:14;10.00;99.90
51589;DHT22;37671;53.258;6.460;2022-11-04T15:39:47;9.90;99.90
51589;DHT22;37671;53.258;6.460;2022-11-04T15:42:19;9.90;99.90
51589;DHT22;37671;53.258;6.460;2022-11-04T15:48:29;9.80;99.90
51589;DHT22;37671;53.258;6.460;2022-11-04T15:51:11;9.70;99.90
51589;DHT22;37671;53.258;6.460;2022-11-04T15:53:54;9.70;99.90
51589;DHT22;37671;53.258;6.460;2022-11-04T15:56:27;9.60;99.90
51589;DHT22;37671;53.258;6.460;2022-11-04T15:58:54;9.90;99.90
51589;DHT22;37671;53.258;6.460;2022-11-04T16:01:21;9.50;99.90
51589;DHT22;37671;53.258;6.460;2022-11-04T16:03:50;9.70;99.90
51589;DHT22;37671;53.258;6.460;2022-11-04T16:06:16;9.40;99.90
51589;DHT22;37671;53.258;6.460;2022-11-04T16:08:42;9.40;99.90
51589;DHT22;37671;53.258;6.460;2022-11-04T16:11:15;9.30;99.90
51589;DHT22;37671;53.258;6.460;2022-11-04T16:13:41;9.20;99.90
51589;DHT22;37671;53.258;6.460;2022-11-04T16:16:22;9.10;99.90
51589;DHT22;37671;53.258;6.460;2022-11-04T16:18:54;9.00;99.90
51589;DHT22;37671;53.258;6.460;2022-11-04T16:21:29;9.40;99.90
51589;DHT22;37671;53.258;6.460;2022-11-04T16:24:14;8.80;99.90
51589;DHT22;37671;53.258;6.460;2022-11-04T16:26:42;8.80;99.90
51589;DHT22;37671;53.258;6.460;2022-11-04T16:29:22;8.80;99.90
51589;DHT22;37671;53.258;6.460;2022-11-04T16:32:13;8.80;99.90
51589;DHT22;37671;53.258;6.460;2022-11-04T16:34:39;8.80;99.90
51589;DHT22;37671;53.258;6.460;2022-11-04T16:37:05;8.70;99.90
51589;DHT22;37671;53.258;6.460;2022-11-04T16:39:30;8.80;99.90
51589;DHT22;37671;53.258;6.460;2022-11-04T16:41:57;8.60;99.90
51589;DHT22;37671;53.258;6.460;2022-11-04T16:44:24;8.50;99.90
51589;DHT22;37671;53.258;6.460;2022-11-04T16:46:50;8.90;99.90
51589;DHT22;37671;53.258;6.460;2022-11-04T16:49:18;8.40;99.90
51589;DHT22;37671;53.258;6.460;2022-11-04T16:51:45;8.30;99.90
51589;DHT22;37671;53.258;6.460;2022-11-04T16:54:12;8.30;99.90
51589;DHT22;37671;53.258;6.460;2022-11-04T16:56:38;9.10;99.90
51589;DHT22;37671;53.258;6.460;2022-11-04T16:59:04;8.20;99.90
51589;DHT22;37671;53.258;6.460;2022-11-04T17:01:29;8.20;99.90
51589;DHT22;37671;53.258;6.460;2022-11-04T18:27:03;7.60;99.90
51589;DHT22;37671;53.258;6.460;2022-11-04T18:29:29;7.50;99.90
51589;DHT22;37671;53.258;6.460;2022-11-04T18:31:54;7.40;99.90
51589;DHT22;37671;53.258;6.460;2022-11-04T18:34:20;8.20;99.90
51589;DHT22;37671;53.258;6.460;2022-11-04T18:36:46;7.40;99.90
51589;DHT22;37671;53.258;6.460;2022-11-04T18:39:14;7.40;99.90
51589;DHT22;37671;53.258;6.460;2022-11-04T18:41:40;7.30;99.90
51589;DHT22;37671;53.258;6.460;2022-11-04T18:44:06;7.30;99.90
51589;DHT22;37671;53.258;6.460;2022-11-04T18:46:32;7.30;99.90
51589;DHT22;37671;53.258;6.460;2022-11-04T18:48:58;7.20;99.90
51589;DHT22;37671;53.258;6.460;2022-11-04T18:51:24;7.20;99.90
51589;DHT22;37671;53.258;6.460;2022-11-04T18:53:51;7.20;99.90
51589;DHT22;37671;53.258;6.460;2022-11-04T18:56:21;7.20;99.90
51589;DHT22;37671;53.258;6.460;2022-11-04T18:58:48;7.10;99.90
51589;DHT22;37671;53.258;6.460;2022-11-04T19:01:20;7.00;99.90
51589;DHT22;37671;53.258;6.460;2022-11-04T19:03:46;7.00;99.90
51589;DHT22;37671;53.258;6.460;2022-11-04T19:06:16;7.00;99.90
51589;DHT22;37671;53.258;6.460;2022-11-04T19:08:42;7.50;99.90
51589;DHT22;37671;53.258;6.460;2022-11-04T19:11:13;7.10;99.90
51589;DHT22;37671;53.258;6.460;2022-11-04T19:13:39;7.10;99.90
51589;DHT22;37671;53.258;6.460;2022-11-04T19:16:07;7.20;99.90
51589;DHT22;37671;53.258;6.460;2022-11-04T19:18:34;7.30;99.90
51589;DHT22;37671;53.258;6.460;2022-11-04T19:21:11;7.30;99.90
51589;DHT22;37671;53.258;6.460;2022-11-04T19:23:37;7.30;99.90
51589;DHT22;37671;53.258;6.460;2022-11-04T19:26:09;7.30;99.90
51589;DHT22;37671;53.258;6.460;2022-11-04T19:28:40;7.30;99.90
51589;DHT22;37671;53.258;6.460;2022-11-04T19:31:08;7.20;99.90
51589;DHT22;37671;53.258;6.460;2022-11-04T19:33:34;7.20;99.90
51589;DHT22;37671;53.258;6.460;2022-11-04T19:36:01;7.20;99.90
51589;DHT22;37671;53.258;6.460;2022-11-04T19:38:27;7.10;99.90
51589;DHT22;37671;53.258;6.460;2022-11-04T19:40:53;7.10;99.90
51589;DHT22;37671;53.258;6.460;2022-11-04T19:43:20;7.00;99.90
51589;DHT22;37671;53.258;6.460;2022-11-04T19:45:48;7.00;99.90
51589;DHT22;37671;53.258;6.460;2022-11-04T19:48:15;6.90;99.90
51589;DHT22;37671;53.258;6.460;2022-11-04T19:50:45;6.90;99.90
51589;DHT22;37671;53.258;6.460;2022-11-04T19:53:11;6.80;99.90
51589;DHT22;37671;53.258;6.460;2022-11-04T19:55:37;6.80;99.90
51589;DHT22;37671;53.258;6.460;2022-11-04T19:58:03;6.80;99.90
51589;DHT22;37671;53.258;6.460;2022-11-04T20:00:29;6.70;99.90
51589;DHT22;37671;53.258;6.460;2022-11-04T20:02:55;6.70;99.90
51589;DHT22;37671;53.258;6.460;2022-11-04T20:05:22;6.70;99.90
51589;DHT22;37671;53.258;6.460;2022-11-04T20:07:47;6.60;99.90
51589;DHT22;37671;53.258;6.460;2022-11-04T20:10:19;6.50;99.90
51589;DHT22;37671;53.258;6.460;2022-11-04T20:12:46;6.50;99.90
51589;DHT22;37671;53.258;6.460;2022-11-04T20:15:30;6.50;99.90
51589;DHT22;37671;53.258;6.460;2022-11-04T20:17:56;6.50;99.90
51589;DHT22;37671;53.258;6.460;2022-11-04T20:20:22;6.50;99.90
51589;DHT22;37671;53.258;6.460;2022-11-04T20:22:47;6.50;99.90
51589;DHT22;37671;53.258;6.460;2022-11-04T20:25:13;6.50;99.90
51589;DHT22;37671;53.258;6.460;2022-11-04T20:27:38;6.40;99.90
51589;DHT22;37671;53.258;6.460;2022-11-04T20:30:04;6.40;99.90
51589;DHT22;37671;53.258;6.460;2022-11-04T20:32:31;6.40;99.90
51589;DHT22;37671;53.258;6.460;2022-11-04T20:34:58;6.40;99.90
51589;DHT22;37671;53.258;6.460;2022-11-04T20:37:23;6.30;99.90
51589;DHT22;37671;53.258;6.460;2022-11-04T20:39:50;6.30;99.90
51589;DHT22;37671;53.258;6.460;2022-11-04T20:42:16;6.20;99.90
51589;DHT22;37671;53.258;6.460;2022-11-04T20:44:41;6.20;99.90
51589;DHT22;37671;53.258;6.460;2022-11-04T20:47:07;6.20;99.90
51589;DHT22;37671;53.258;6.460;2022-11-04T20:49:32;6.20;99.90
51589;DHT22;37671;53.258;6.460;2022-11-04T20:51:58;6.20;99.90
51589;DHT22;37671;53.258;6.460;2022-11-04T20:54:24;6.20;99.90
51589;DHT22;37671;53.258;6.460;2022-11-04T20:56:49;6.20;99.90
51589;DHT22;37671;53.258;6.460;2022-11-04T20:59:15;6.10;99.90
51589;DHT22;37671;53.258;6.460;2022-11-04T21:01:44;6.10;99.90
51589;DHT22;37671;53.258;6.460;2022-11-04T21:04:16;7.20;99.90
51589;DHT22;37671;53.258;6.460;2022-11-04T21:06:46;5.90;99.90
51589;DHT22;37671;53.258;6.460;2022-11-04T21:09:14;5.90;99.90
51589;DHT22;37671;53.258;6.460;2022-11-04T21:11:41;5.90;99.90
51589;DHT22;37671;53.258;6.460;2022-11-04T21:14:09;5.80;99.90
51589;DHT22;37671;53.258;6.460;2022-11-04T21:16:36;5.80;99.90
51589;DHT22;37671;53.258;6.460;2022-11-04T21:19:02;5.70;99.90
51589;DHT22;37671;53.258;6.460;2022-11-04T21:21:28;5.70;99.90
51589;DHT22;37671;53.258;6.460;2022-11-04T21:23:58;5.70;99.90
51589;DHT22;37671;53.258;6.460;2022-11-04T21:26:26;5.60;99.90
51589;DHT22;37671;53.258;6.460;2022-11-04T21:28:59;5.70;99.90
51589;DHT22;37671;53.258;6.460;2022-11-04T21:31:26;5.60;99.90
51589;DHT22;37671;53.258;6.460;2022-11-04T21:33:52;5.70;99.90
51589;DHT22;37671;53.258;6.460;2022-11-04T21:36:19;5.70;99.90
51589;DHT22;37671;53.258;6.460;2022-11-04T21:38:44;5.70;99.90
51589;DHT22;37671;53.258;6.460;2022-11-04T21:41:16;5.70;99.90
51589;DHT22;37671;53.258;6.460;2022-11-04T21:43:42;5.80;99.90
51589;DHT22;37671;53.258;6.460;2022-11-04T21:46:13;5.80;99.90
51589;DHT22;37671;53.258;6.460;2022-11-04T21:48:40;5.90;99.90
51589;DHT22;37671;53.258;6.460;2022-11-04T21:51:10;5.90;99.90
51589;DHT22;37671;53.258;6.460;2022-11-04T21:53:37;5.90;99.90
51589;DHT22;37671;53.258;6.460;2022-11-04T21:56:08;6.10;99.90
51589;DHT22;37671;53.258;6.460;2022-11-04T21:58:35;5.90;99.90
51589;DHT22;37671;53.258;6.460;2022-11-04T22:01:02;6.00;99.90
51589;DHT22;37671;53.258;6.460;2022-11-04T22:03:28;5.90;99.90
51589;DHT22;37671;53.258;6.460;2022-11-04T22:06:04;6.10;99.90
51589;DHT22;37671;53.258;6.460;2022-11-04T22:08:30;6.20;99.90
51589;DHT22;37671;53.258;6.460;2022-11-04T22:11:13;6.30;99.90
51589;DHT22;37671;53.258;6.460;2022-11-04T22:13:40;6.50;99.90
51589;DHT22;37671;53.258;6.460;2022-11-04T22:16:17;6.60;99.90
51589;DHT22;37671;53.258;6.460;2022-11-04T22:18:43;7.40;99.90
51589;DHT22;37671;53.258;6.460;2022-11-04T22:21:12;6.80;99.90
51589;DHT22;37671;53.258;6.460;2022-11-04T22:23:38;6.90;99.90
51589;DHT22;37671;53.258;6.460;2022-11-04T22:26:07;6.90;99.90
51589;DHT22;37671;53.258;6.460;2022-11-04T22:28:34;7.00;99.90
51589;DHT22;37671;53.258;6.460;2022-11-04T22:31:05;7.00;99.90
51589;DHT22;37671;53.258;6.460;2022-11-04T22:33:31;7.00;99.90
51589;DHT22;37671;53.258;6.460;2022-11-04T22:35:56;7.10;99.90
51589;DHT22;37671;53.258;6.460;2022-11-04T22:38:22;7.10;99.90
51589;DHT22;37671;53.258;6.460;2022-11-04T22:40:55;7.10;99.90
51589;DHT22;37671;53.258;6.460;2022-11-04T22:43:22;7.10;99.90
51589;DHT22;37671;53.258;6.460;2022-11-04T22:45:52;7.00;99.90
51589;DHT22;37671;53.258;6.460;2022-11-04T22:48:19;7.00;99.90
51589;DHT22;37671;53.258;6.460;2022-11-04T22:50:52;6.90;99.90
51589;DHT22;37671;53.258;6.460;2022-11-04T22:53:17;6.90;99.90
51589;DHT22;37671;53.258;6.460;2022-11-04T22:55:43;6.80;99.90
51589;DHT22;37671;53.258;6.460;2022-11-04T22:58:09;6.70;99.90
51589;DHT22;37671;53.258;6.460;2022-11-04T23:00:34;6.60;99.90
51589;DHT22;37671;53.258;6.460;2022-11-04T23:03:00;6.60;99.90
51589;DHT22;37671;53.258;6.460;2022-11-04T23:05:25;6.50;99.90
51589;DHT22;37671;53.258;6.460;2022-11-04T23:07:54;6.50;99.90
51589;DHT22;37671;53.258;6.460;2022-11-04T23:10:21;6.50;99.90
51589;DHT22;37671;53.258;6.460;2022-11-04T23:13:05;6.50;99.90
51589;DHT22;37671;53.258;6.460;2022-11-04T23:15:49;6.50;99.90
51589;DHT22;37671;53.258;6.460;2022-11-04T23:18:33;6.40;99.90
51589;DHT22;37671;53.258;6.460;2022-11-04T23:21:20;6.30;99.90
51589;DHT22;37671;53.258;6.460;2022-11-04T23:24:05;6.20;99.90
51589;DHT22;37671;53.258;6.460;2022-11-04T23:26:50;6.20;99.90
51589;DHT22;37671;53.258;6.460;2022-11-04T23:29:16;6.10;99.90